Thursday, November 21, 2019, 10:13 PM EST
Back to Local

KISO, Kinston, Kinston Regional Jetport At Stallings Field

Location: Kinston, NC, United States Lat: 35.333
Local Time: 10:13 PM EST ( 3:13 GMT) Lon: -77.617
Time Zone: US/Eastern Elev: 95 ft

Show me the last for .
Show Decoded

2019-11-21 21:55 METAR KISO 220255Z AUTO 00000KT 10SM CLR 07/04 A3021 RMK AO2 T00690042 =
2019-11-21 20:56 METAR KISO 220156Z 00000KT 10SM CLR 05/04 A3022 =
2019-11-21 19:56 METAR KISO 220056Z 00000KT 10SM CLR 06/05 A3022 =
2019-11-21 18:56 METAR KISO 212356Z 21003KT 10SM CLR 07/05 A3022 =
2019-11-21 17:56 METAR KISO 212256Z 00000KT 10SM CLR 09/06 A3022 =
2019-11-21 16:56 METAR KISO 212156Z 00000KT 10SM CLR 10/06 A3023 =
2019-11-21 15:56 METAR KISO 212056Z 00000KT 10SM CLR 14/02 A3022 =
2019-11-21 14:56 METAR KISO 211956Z 00000KT 10SM CLR 14/01 A3022 =
2019-11-21 13:56 METAR KISO 211856Z 00000KT 10SM CLR 14/01 A3023 =
2019-11-21 12:56 METAR KISO 211756Z 32004KT 10SM CLR 13/01 A3026 =
2019-11-21 11:56 METAR KISO 211656Z 36004KT 10SM CLR 12/01 A3030 =
2019-11-21 10:56 METAR KISO 211556Z 01007KT 10SM CLR 11/01 A3032 =
2019-11-21 09:56 METAR KISO 211456Z 03004KT 10SM CLR 10/02 A3034 =
2019-11-21 08:56 METAR KISO 211356Z 36003KT 10SM CLR 06/02 A3033 =
2019-11-21 07:56 METAR KISO 211256Z 00000KT 10SM CLR 02/01 A3036 =
2019-11-21 06:56 METAR KISO 211156Z 00000KT 5SM BR CLR 00/M00 A3032 =
2019-11-21 06:25 METAR KISO 211125Z 00000KT 10SM CLR 01/00 A3031 =
2019-11-21 06:15 METAR KISO 211115Z AUTO 00000KT 5SM BR CLR 01/00 A3030 RMK AO2 T00050000 =
2019-11-21 05:55 METAR KISO 211055Z AUTO 00000KT 5SM BR CLR 01/00 A3029 RMK AO2 T00060000 =
2019-11-21 05:35 METAR KISO 211035Z AUTO 00000KT 5SM BR CLR 01/00 A3029 RMK AO2 T00060000 =
2019-11-21 05:15 METAR KISO 211015Z AUTO 00000KT 10SM CLR 01/00 A3029 RMK AO2 T00070000 =
2019-11-21 04:55 METAR KISO 210955Z AUTO 00000KT 10SM CLR 01/00 A3029 RMK AO2 T00060000 =
2019-11-21 04:35 METAR KISO 210935Z AUTO 00000KT 10SM CLR 01/00 A3028 RMK AO2 T00060000 =
2019-11-21 04:15 METAR KISO 210915Z AUTO 00000KT 7SM CLR 00/00 A3028 RMK AO2 T00011004 =
2019-11-21 03:55 METAR KISO 210855Z AUTO 00000KT 7SM CLR 00/M01 A3027 RMK AO2 T00001006 =
2019-11-21 03:35 METAR KISO 210835Z AUTO 00000KT 7SM CLR 01/00 A3026 RMK AO2 T00061001 =
2019-11-21 03:15 METAR KISO 210815Z AUTO 00000KT 10SM CLR 01/00 A3027 RMK AO2 T00080000 =
2019-11-21 02:55 METAR KISO 210755Z AUTO 00000KT 7SM CLR 01/00 A3027 RMK AO2 T00051001 =
2019-11-21 02:35 METAR KISO 210735Z AUTO 00000KT 7SM CLR 00/00 A3027 RMK AO2 T00011005 =
2019-11-21 02:15 METAR KISO 210715Z AUTO 00000KT 10SM CLR 01/00 A3027 RMK AO2 T00120002 =
2019-11-21 01:55 METAR KISO 210655Z AUTO 00000KT 10SM CLR 01/00 A3026 RMK AO2 T00100000 =
2019-11-21 01:35 METAR KISO 210635Z AUTO 00000KT 10SM CLR 02/01 A3026 RMK AO2 T00170005 =
2019-11-21 01:15 METAR KISO 210615Z AUTO 00000KT 10SM CLR 01/00 A3025 RMK AO2 T00140002 =
2019-11-21 00:55 METAR KISO 210555Z AUTO 00000KT 10SM CLR 01/00 A3026 RMK AO2 T00110002 10054
                 20006 401570006 =
2019-11-21 00:35 METAR KISO 210535Z AUTO 00000KT 10SM CLR 01/00 A3025 RMK AO2 T00110001 =
2019-11-21 00:15 METAR KISO 210515Z AUTO 00000KT 10SM CLR 01/00 A3025 RMK AO2 T00090000 =
2019-11-20 23:55 METAR KISO 210455Z AUTO 00000KT 10SM CLR 01/00 A3026 RMK AO2 T00120003 =
2019-11-20 23:35 METAR KISO 210435Z AUTO 00000KT 7SM CLR 02/01 A3025 RMK AO2 T00170007 =
2019-11-20 23:15 METAR KISO 210415Z AUTO 00000KT 7SM CLR 02/01 A3024 RMK AO2 T00200011 =
2019-11-20 22:55 METAR KISO 210355Z AUTO 00000KT 10SM CLR 02/01 A3024 RMK AO2 T00220011 =
2019-11-20 22:35 METAR KISO 210335Z AUTO 00000KT 10SM CLR 02/01 A3024 RMK AO2 T00190010 =
2019-11-20 22:15 METAR KISO 210315Z AUTO 00000KT 10SM CLR 01/00 A3024 RMK AO2 T00140004 =

Support USWX by starting your Amazon purchase here.